sensor_id;sensor_type;location;lat;lon;timestamp;P1;durP1;ratioP1;P2;durP2;ratioP2
27003;SDS011;14546;47.590;19.022;2023-07-20T00:01:25;7.07;;;3.47;;
27003;SDS011;14546;47.590;19.022;2023-07-20T00:03:51;6.32;;;3.42;;
27003;SDS011;14546;47.590;19.022;2023-07-20T00:06:23;11.15;;;4.00;;
27003;SDS011;14546;47.590;19.022;2023-07-20T00:08:56;9.60;;;4.53;;
27003;SDS011;14546;47.590;19.022;2023-07-20T00:13:49;7.03;;;3.25;;
27003;SDS011;14546;47.590;19.022;2023-07-20T00:16:16;9.77;;;3.50;;
27003;SDS011;14546;47.590;19.022;2023-07-20T00:18:42;7.63;;;3.20;;
27003;SDS011;14546;47.590;19.022;2023-07-20T00:21:08;6.53;;;3.53;;
27003;SDS011;14546;47.590;19.022;2023-07-20T00:23:34;8.88;;;3.55;;
27003;SDS011;14546;47.590;19.022;2023-07-20T00:26:00;7.68;;;3.88;;
27003;SDS011;14546;47.590;19.022;2023-07-20T00:28:27;10.05;;;4.13;;
27003;SDS011;14546;47.590;19.022;2023-07-20T00:30:53;10.55;;;4.22;;
27003;SDS011;14546;47.590;19.022;2023-07-20T00:33:19;16.35;;;5.22;;
27003;SDS011;14546;47.590;19.022;2023-07-20T00:35:45;10.82;;;3.97;;
27003;SDS011;14546;47.590;19.022;2023-07-20T00:38:11;7.82;;;3.40;;
27003;SDS011;14546;47.590;19.022;2023-07-20T00:40:37;7.13;;;3.90;;
27003;SDS011;14546;47.590;19.022;2023-07-20T00:43:04;9.07;;;3.97;;
27003;SDS011;14546;47.590;19.022;2023-07-20T00:45:30;5.45;;;3.55;;
27003;SDS011;14546;47.590;19.022;2023-07-20T00:47:56;8.68;;;4.00;;
27003;SDS011;14546;47.590;19.022;2023-07-20T00:50:23;8.63;;;3.97;;
27003;SDS011;14546;47.590;19.022;2023-07-20T00:52:50;14.45;;;4.53;;
27003;SDS011;14546;47.590;19.022;2023-07-20T00:55:16;8.50;;;3.78;;
27003;SDS011;14546;47.590;19.022;2023-07-20T00:57:42;10.15;;;3.72;;
27003;SDS011;14546;47.590;19.022;2023-07-20T01:00:08;7.50;;;3.78;;
27003;SDS011;14546;47.590;19.022;2023-07-20T01:02:34;7.78;;;3.95;;
27003;SDS011;14546;47.590;19.022;2023-07-20T01:05:01;8.48;;;3.63;;
27003;SDS011;14546;47.590;19.022;2023-07-20T01:07:31;9.90;;;3.88;;
27003;SDS011;14546;47.590;19.022;2023-07-20T01:12:43;12.23;;;4.28;;
27003;SDS011;14546;47.590;19.022;2023-07-20T01:15:10;7.78;;;4.13;;
27003;SDS011;14546;47.590;19.022;2023-07-20T01:17:37;9.52;;;3.70;;
27003;SDS011;14546;47.590;19.022;2023-07-20T01:20:03;6.35;;;3.70;;
27003;SDS011;14546;47.590;19.022;2023-07-20T01:32:38;9.18;;;4.45;;
27003;SDS011;14546;47.590;19.022;2023-07-20T01:35:06;8.60;;;3.95;;
27003;SDS011;14546;47.590;19.022;2023-07-20T01:37:32;7.70;;;3.70;;
27003;SDS011;14546;47.590;19.022;2023-07-20T01:39:59;9.48;;;4.10;;
27003;SDS011;14546;47.590;19.022;2023-07-20T01:42:26;7.30;;;3.70;;
27003;SDS011;14546;47.590;19.022;2023-07-20T01:44:52;8.05;;;3.78;;
27003;SDS011;14546;47.590;19.022;2023-07-20T01:47:18;10.63;;;3.95;;
27003;SDS011;14546;47.590;19.022;2023-07-20T01:49:44;8.48;;;4.20;;
27003;SDS011;14546;47.590;19.022;2023-07-20T01:52:10;6.55;;;3.67;;
27003;SDS011;14546;47.590;19.022;2023-07-20T01:54:36;6.53;;;3.63;;
27003;SDS011;14546;47.590;19.022;2023-07-20T01:57:03;8.88;;;3.95;;
27003;SDS011;14546;47.590;19.022;2023-07-20T01:59:29;7.03;;;3.33;;
27003;SDS011;14546;47.590;19.022;2023-07-20T02:01:55;25.35;;;5.82;;
27003;SDS011;14546;47.590;19.022;2023-07-20T02:04:21;75.00;;;10.52;;
27003;SDS011;14546;47.590;19.022;2023-07-20T02:06:47;59.83;;;10.02;;
27003;SDS011;14546;47.590;19.022;2023-07-20T02:09:13;44.05;;;8.65;;
27003;SDS011;14546;47.590;19.022;2023-07-20T02:11:39;44.28;;;8.65;;
27003;SDS011;14546;47.590;19.022;2023-07-20T02:14:05;35.08;;;7.38;;
27003;SDS011;14546;47.590;19.022;2023-07-20T02:16:31;54.13;;;9.95;;
27003;SDS011;14546;47.590;19.022;2023-07-20T02:18:57;49.53;;;9.20;;
27003;SDS011;14546;47.590;19.022;2023-07-20T02:21:23;19.63;;;5.07;;
27003;SDS011;14546;47.590;19.022;2023-07-20T02:23:49;12.93;;;5.28;;
27003;SDS011;14546;47.590;19.022;2023-07-20T02:26:15;19.50;;;5.22;;
27003;SDS011;14546;47.590;19.022;2023-07-20T02:28:41;16.38;;;5.07;;
27003;SDS011;14546;47.590;19.022;2023-07-20T02:31:07;23.13;;;6.05;;
27003;SDS011;14546;47.590;19.022;2023-07-20T02:33:33;21.45;;;5.15;;
27003;SDS011;14546;47.590;19.022;2023-07-20T02:35:59;26.73;;;6.35;;
27003;SDS011;14546;47.590;19.022;2023-07-20T02:38:25;37.60;;;7.13;;
27003;SDS011;14546;47.590;19.022;2023-07-20T02:40:51;22.30;;;5.18;;
27003;SDS011;14546;47.590;19.022;2023-07-20T02:43:17;22.45;;;6.50;;
27003;SDS011;14546;47.590;19.022;2023-07-20T02:45:43;7.13;;;3.90;;
27003;SDS011;14546;47.590;19.022;2023-07-20T02:48:09;10.55;;;4.43;;
27003;SDS011;14546;47.590;19.022;2023-07-20T02:50:34;10.45;;;4.53;;
27003;SDS011;14546;47.590;19.022;2023-07-20T02:53:00;8.45;;;4.13;;
27003;SDS011;14546;47.590;19.022;2023-07-20T02:55:26;6.25;;;3.88;;
27003;SDS011;14546;47.590;19.022;2023-07-20T02:57:52;11.88;;;4.22;;
27003;SDS011;14546;47.590;19.022;2023-07-20T03:00:17;16.65;;;5.07;;
27003;SDS011;14546;47.590;19.022;2023-07-20T03:02:44;8.23;;;3.78;;
27003;SDS011;14546;47.590;19.022;2023-07-20T03:05:13;11.00;;;4.10;;
27003;SDS011;14546;47.590;19.022;2023-07-20T03:07:38;8.18;;;3.85;;
27003;SDS011;14546;47.590;19.022;2023-07-20T03:10:05;8.45;;;3.92;;
27003;SDS011;14546;47.590;19.022;2023-07-20T03:12:34;7.57;;;3.78;;
27003;SDS011;14546;47.590;19.022;2023-07-20T03:14:59;9.23;;;4.15;;
27003;SDS011;14546;47.590;19.022;2023-07-20T03:17:26;11.07;;;4.32;;
27003;SDS011;14546;47.590;19.022;2023-07-20T03:19:51;7.97;;;3.70;;
27003;SDS011;14546;47.590;19.022;2023-07-20T03:22:17;7.45;;;3.72;;
27003;SDS011;14546;47.590;19.022;2023-07-20T03:24:43;8.10;;;3.70;;
27003;SDS011;14546;47.590;19.022;2023-07-20T03:27:09;7.68;;;4.13;;
27003;SDS011;14546;47.590;19.022;2023-07-20T03:29:34;12.43;;;4.05;;
27003;SDS011;14546;47.590;19.022;2023-07-20T03:32:00;9.65;;;3.75;;
27003;SDS011;14546;47.590;19.022;2023-07-20T03:34:25;16.58;;;4.22;;
27003;SDS011;14546;47.590;19.022;2023-07-20T03:36:51;12.63;;;4.57;;
27003;SDS011;14546;47.590;19.022;2023-07-20T03:39:17;8.15;;;4.45;;
27003;SDS011;14546;47.590;19.022;2023-07-20T03:41:42;8.68;;;4.07;;
27003;SDS011;14546;47.590;19.022;2023-07-20T03:44:08;9.90;;;4.10;;
27003;SDS011;14546;47.590;19.022;2023-07-20T03:46:34;7.05;;;3.60;;
27003;SDS011;14546;47.590;19.022;2023-07-20T03:48:59;7.78;;;4.18;;
27003;SDS011;14546;47.590;19.022;2023-07-20T03:51:25;7.60;;;4.05;;
27003;SDS011;14546;47.590;19.022;2023-07-20T03:53:51;10.50;;;4.20;;
27003;SDS011;14546;47.590;19.022;2023-07-20T03:56:17;13.68;;;4.38;;
27003;SDS011;14546;47.590;19.022;2023-07-20T03:58:43;8.45;;;4.22;;
27003;SDS011;14546;47.590;19.022;2023-07-20T04:01:08;12.05;;;4.07;;
27003;SDS011;14546;47.590;19.022;2023-07-20T04:03:35;8.93;;;3.97;;
27003;SDS011;14546;47.590;19.022;2023-07-20T04:06:01;7.65;;;4.00;;
27003;SDS011;14546;47.590;19.022;2023-07-20T04:08:27;7.05;;;4.15;;
27003;SDS011;14546;47.590;19.022;2023-07-20T04:10:52;6.78;;;4.10;;
27003;SDS011;14546;47.590;19.022;2023-07-20T04:13:18;6.43;;;3.88;;
27003;SDS011;14546;47.590;19.022;2023-07-20T04:15:44;7.22;;;3.83;;
27003;SDS011;14546;47.590;19.022;2023-07-20T04:18:10;10.77;;;4.30;;
27003;SDS011;14546;47.590;19.022;2023-07-20T04:20:35;21.38;;;4.57;;
27003;SDS011;14546;47.590;19.022;2023-07-20T04:23:01;9.73;;;3.90;;
27003;SDS011;14546;47.590;19.022;2023-07-20T04:25:27;6.15;;;3.97;;
27003;SDS011;14546;47.590;19.022;2023-07-20T04:27:52;8.32;;;4.85;;
27003;SDS011;14546;47.590;19.022;2023-07-20T04:30:18;15.30;;;3.85;;
27003;SDS011;14546;47.590;19.022;2023-07-20T04:32:47;13.35;;;5.07;;
27003;SDS011;14546;47.590;19.022;2023-07-20T04:35:18;8.95;;;4.38;;
27003;SDS011;14546;47.590;19.022;2023-07-20T04:38:03;6.78;;;3.90;;
27003;SDS011;14546;47.590;19.022;2023-07-20T04:40:29;10.23;;;4.18;;
27003;SDS011;14546;47.590;19.022;2023-07-20T04:42:54;8.35;;;4.90;;
27003;SDS011;14546;47.590;19.022;2023-07-20T04:45:20;13.23;;;4.20;;
27003;SDS011;14546;47.590;19.022;2023-07-20T04:47:48;5.93;;;3.78;;
27003;SDS011;14546;47.590;19.022;2023-07-20T04:50:16;12.48;;;3.85;;
27003;SDS011;14546;47.590;19.022;2023-07-20T04:52:41;12.70;;;4.50;;
27003;SDS011;14546;47.590;19.022;2023-07-20T04:55:07;10.30;;;4.28;;
27003;SDS011;14546;47.590;19.022;2023-07-20T04:57:34;6.13;;;3.90;;
27003;SDS011;14546;47.590;19.022;2023-07-20T04:59:59;8.02;;;4.05;;
27003;SDS011;14546;47.590;19.022;2023-07-20T05:02:25;6.13;;;4.13;;
27003;SDS011;14546;47.590;19.022;2023-07-20T05:04:50;5.97;;;3.97;;
27003;SDS011;14546;47.590;19.022;2023-07-20T05:07:16;7.38;;;3.53;;
27003;SDS011;14546;47.590;19.022;2023-07-20T05:09:42;9.90;;;4.20;;
27003;SDS011;14546;47.590;19.022;2023-07-20T05:12:07;8.20;;;3.63;;
27003;SDS011;14546;47.590;19.022;2023-07-20T05:14:33;7.72;;;4.35;;
27003;SDS011;14546;47.590;19.022;2023-07-20T05:16:59;8.00;;;4.82;;
27003;SDS011;14546;47.590;19.022;2023-07-20T05:19:24;8.63;;;4.20;;
27003;SDS011;14546;47.590;19.022;2023-07-20T05:21:50;10.30;;;4.18;;
27003;SDS011;14546;47.590;19.022;2023-07-20T05:24:16;8.30;;;4.00;;
27003;SDS011;14546;47.590;19.022;2023-07-20T05:26:42;12.07;;;4.43;;
27003;SDS011;14546;47.590;19.022;2023-07-20T05:29:07;9.40;;;4.40;;
27003;SDS011;14546;47.590;19.022;2023-07-20T05:31:33;8.02;;;4.25;;
27003;SDS011;14546;47.590;19.022;2023-07-20T05:33:59;6.65;;;3.80;;
27003;SDS011;14546;47.590;19.022;2023-07-20T05:36:24;10.32;;;4.45;;
27003;SDS011;14546;47.590;19.022;2023-07-20T05:38:50;9.15;;;4.70;;
27003;SDS011;14546;47.590;19.022;2023-07-20T05:41:15;6.25;;;3.80;;
27003;SDS011;14546;47.590;19.022;2023-07-20T05:43:41;7.50;;;4.05;;
27003;SDS011;14546;47.590;19.022;2023-07-20T05:46:07;7.50;;;4.40;;
27003;SDS011;14546;47.590;19.022;2023-07-20T05:48:33;7.75;;;3.83;;
27003;SDS011;14546;47.590;19.022;2023-07-20T05:50:58;8.70;;;4.20;;
27003;SDS011;14546;47.590;19.022;2023-07-20T05:53:24;10.15;;;3.95;;
27003;SDS011;14546;47.590;19.022;2023-07-20T05:55:59;15.68;;;4.50;;
27003;SDS011;14546;47.590;19.022;2023-07-20T05:58:24;10.27;;;4.32;;
27003;SDS011;14546;47.590;19.022;2023-07-20T06:00:50;7.45;;;4.22;;
27003;SDS011;14546;47.590;19.022;2023-07-20T06:03:16;9.30;;;3.85;;
27003;SDS011;14546;47.590;19.022;2023-07-20T06:05:42;9.63;;;4.90;;
27003;SDS011;14546;47.590;19.022;2023-07-20T06:08:08;6.78;;;4.13;;
27003;SDS011;14546;47.590;19.022;2023-07-20T06:10:34;11.98;;;4.88;;
27003;SDS011;14546;47.590;19.022;2023-07-20T06:12:59;9.15;;;4.15;;
27003;SDS011;14546;47.590;19.022;2023-07-20T06:15:26;9.07;;;4.20;;
27003;SDS011;14546;47.590;19.022;2023-07-20T06:17:53;9.93;;;4.93;;
27003;SDS011;14546;47.590;19.022;2023-07-20T06:20:21;9.25;;;5.20;;
27003;SDS011;14546;47.590;19.022;2023-07-20T06:22:47;7.15;;;4.38;;
27003;SDS011;14546;47.590;19.022;2023-07-20T06:25:13;12.85;;;4.45;;
27003;SDS011;14546;47.590;19.022;2023-07-20T06:27:39;13.00;;;4.60;;
27003;SDS011;14546;47.590;19.022;2023-07-20T06:30:04;9.50;;;4.75;;
27003;SDS011;14546;47.590;19.022;2023-07-20T06:32:30;6.65;;;4.07;;
27003;SDS011;14546;47.590;19.022;2023-07-20T06:34:56;11.00;;;4.78;;
27003;SDS011;14546;47.590;19.022;2023-07-20T06:37:22;11.85;;;5.53;;
27003;SDS011;14546;47.590;19.022;2023-07-20T06:39:48;9.80;;;4.75;;
27003;SDS011;14546;47.590;19.022;2023-07-20T06:42:13;10.90;;;4.75;;
27003;SDS011;14546;47.590;19.022;2023-07-20T06:44:39;10.73;;;4.70;;
27003;SDS011;14546;47.590;19.022;2023-07-20T06:47:05;9.23;;;4.75;;
27003;SDS011;14546;47.590;19.022;2023-07-20T06:49:30;7.82;;;4.38;;
27003;SDS011;14546;47.590;19.022;2023-07-20T06:51:56;8.63;;;4.78;;
27003;SDS011;14546;47.590;19.022;2023-07-20T06:54:22;11.27;;;4.85;;
27003;SDS011;14546;47.590;19.022;2023-07-20T06:56:48;13.15;;;4.65;;
27003;SDS011;14546;47.590;19.022;2023-07-20T06:59:13;7.95;;;4.05;;
27003;SDS011;14546;47.590;19.022;2023-07-20T07:01:39;8.77;;;4.78;;
27003;SDS011;14546;47.590;19.022;2023-07-20T07:04:05;8.90;;;4.57;;
27003;SDS011;14546;47.590;19.022;2023-07-20T07:06:31;7.95;;;4.28;;
27003;SDS011;14546;47.590;19.022;2023-07-20T07:08:58;8.98;;;4.03;;
27003;SDS011;14546;47.590;19.022;2023-07-20T07:11:24;9.70;;;4.20;;
27003;SDS011;14546;47.590;19.022;2023-07-20T07:13:50;15.30;;;4.40;;
27003;SDS011;14546;47.590;19.022;2023-07-20T07:16:16;9.65;;;4.50;;
27003;SDS011;14546;47.590;19.022;2023-07-20T07:18:47;10.75;;;4.13;;
27003;SDS011;14546;47.590;19.022;2023-07-20T07:21:13;10.15;;;4.93;;
27003;SDS011;14546;47.590;19.022;2023-07-20T07:23:39;9.85;;;4.32;;
27003;SDS011;14546;47.590;19.022;2023-07-20T07:26:05;7.40;;;3.63;;
27003;SDS011;14546;47.590;19.022;2023-07-20T07:28:31;7.93;;;3.88;;
27003;SDS011;14546;47.590;19.022;2023-07-20T07:30:57;12.50;;;4.18;;
27003;SDS011;14546;47.590;19.022;2023-07-20T07:33:23;8.35;;;4.03;;
27003;SDS011;14546;47.590;19.022;2023-07-20T07:35:49;5.38;;;3.50;;
27003;SDS011;14546;47.590;19.022;2023-07-20T07:38:18;11.13;;;3.88;;
27003;SDS011;14546;47.590;19.022;2023-07-20T07:40:45;8.45;;;3.75;;
27003;SDS011;14546;47.590;19.022;2023-07-20T07:43:11;7.03;;;3.75;;
27003;SDS011;14546;47.590;19.022;2023-07-20T07:45:38;8.52;;;3.35;;
27003;SDS011;14546;47.590;19.022;2023-07-20T07:48:07;13.90;;;3.58;;
27003;SDS011;14546;47.590;19.022;2023-07-20T07:50:36;7.50;;;3.10;;
27003;SDS011;14546;47.590;19.022;2023-07-20T07:53:02;9.30;;;3.28;;
27003;SDS011;14546;47.590;19.022;2023-07-20T07:55:28;6.78;;;3.13;;
27003;SDS011;14546;47.590;19.022;2023-07-20T07:57:53;8.48;;;3.95;;
27003;SDS011;14546;47.590;19.022;2023-07-20T08:00:19;13.23;;;3.80;;
27003;SDS011;14546;47.590;19.022;2023-07-20T08:02:45;10.20;;;3.30;;
27003;SDS011;14546;47.590;19.022;2023-07-20T08:05:13;6.18;;;3.30;;
27003;SDS011;14546;47.590;19.022;2023-07-20T08:07:39;4.28;;;3.33;;
27003;SDS011;14546;47.590;19.022;2023-07-20T08:10:07;6.32;;;3.38;;
27003;SDS011;14546;47.590;19.022;2023-07-20T08:12:33;6.45;;;3.03;;
27003;SDS011;14546;47.590;19.022;2023-07-20T08:14:59;7.60;;;3.20;;
27003;SDS011;14546;47.590;19.022;2023-07-20T08:17:25;6.32;;;3.08;;
27003;SDS011;14546;47.590;19.022;2023-07-20T08:19:50;8.80;;;3.08;;
27003;SDS011;14546;47.590;19.022;2023-07-20T08:22:16;6.47;;;3.15;;
27003;SDS011;14546;47.590;19.022;2023-07-20T08:24:42;7.95;;;3.03;;
27003;SDS011;14546;47.590;19.022;2023-07-20T08:27:09;10.77;;;3.25;;
27003;SDS011;14546;47.590;19.022;2023-07-20T08:29:35;7.05;;;3.40;;
27003;SDS011;14546;47.590;19.022;2023-07-20T08:32:02;8.50;;;3.08;;
27003;SDS011;14546;47.590;19.022;2023-07-20T08:34:29;9.65;;;3.17;;
27003;SDS011;14546;47.590;19.022;2023-07-20T08:36:55;12.80;;;3.00;;
27003;SDS011;14546;47.590;19.022;2023-07-20T08:39:21;6.65;;;2.78;;
27003;SDS011;14546;47.590;19.022;2023-07-20T08:41:47;16.98;;;2.90;;
27003;SDS011;14546;47.590;19.022;2023-07-20T08:44:14;6.88;;;2.90;;
27003;SDS011;14546;47.590;19.022;2023-07-20T08:46:40;9.23;;;2.90;;
27003;SDS011;14546;47.590;19.022;2023-07-20T08:49:07;7.20;;;3.05;;
27003;SDS011;14546;47.590;19.022;2023-07-20T08:51:33;9.75;;;2.72;;
27003;SDS011;14546;47.590;19.022;2023-07-20T08:54:01;3.67;;;2.63;;
27003;SDS011;14546;47.590;19.022;2023-07-20T08:56:27;7.22;;;2.88;;
27003;SDS011;14546;47.590;19.022;2023-07-20T08:58:55;6.97;;;3.17;;
27003;SDS011;14546;47.590;19.022;2023-07-20T09:01:22;9.40;;;2.75;;
27003;SDS011;14546;47.590;19.022;2023-07-20T09:03:48;9.75;;;3.08;;
27003;SDS011;14546;47.590;19.022;2023-07-20T09:06:14;5.63;;;2.90;;
27003;SDS011;14546;47.590;19.022;2023-07-20T09:08:41;12.10;;;3.42;;
27003;SDS011;14546;47.590;19.022;2023-07-20T09:11:07;5.88;;;3.03;;
27003;SDS011;14546;47.590;19.022;2023-07-20T09:13:40;8.80;;;2.97;;
27003;SDS011;14546;47.590;19.022;2023-07-20T09:16:06;16.42;;;4.35;;
27003;SDS011;14546;47.590;19.022;2023-07-20T09:18:32;3.88;;;2.60;;
27003;SDS011;14546;47.590;19.022;2023-07-20T09:21:02;4.72;;;3.03;;
27003;SDS011;14546;47.590;19.022;2023-07-20T09:23:36;12.45;;;3.28;;
27003;SDS011;14546;47.590;19.022;2023-07-20T09:26:11;4.70;;;2.85;;
27003;SDS011;14546;47.590;19.022;2023-07-20T09:28:47;4.97;;;2.60;;
27003;SDS011;14546;47.590;19.022;2023-07-20T09:31:21;4.75;;;2.63;;
27003;SDS011;14546;47.590;19.022;2023-07-20T09:33:47;8.50;;;2.90;;
27003;SDS011;14546;47.590;19.022;2023-07-20T09:36:14;4.65;;;2.58;;
27003;SDS011;14546;47.590;19.022;2023-07-20T09:38:41;7.10;;;2.90;;
27003;SDS011;14546;47.590;19.022;2023-07-20T09:41:07;15.05;;;3.53;;
27003;SDS011;14546;47.590;19.022;2023-07-20T09:43:34;7.40;;;2.70;;
27003;SDS011;14546;47.590;19.022;2023-07-20T09:45:59;7.35;;;3.03;;
27003;SDS011;14546;47.590;19.022;2023-07-20T09:48:25;5.22;;;2.80;;
27003;SDS011;14546;47.590;19.022;2023-07-20T09:50:52;11.00;;;3.30;;
27003;SDS011;14546;47.590;19.022;2023-07-20T09:53:18;11.38;;;2.60;;
27003;SDS011;14546;47.590;19.022;2023-07-20T09:55:45;5.65;;;2.97;;
27003;SDS011;14546;47.590;19.022;2023-07-20T09:58:15;8.48;;;2.90;;
27003;SDS011;14546;47.590;19.022;2023-07-20T10:00:42;7.55;;;2.90;;
27003;SDS011;14546;47.590;19.022;2023-07-20T10:03:19;7.10;;;3.05;;
27003;SDS011;14546;47.590;19.022;2023-07-20T10:05:47;6.95;;;2.78;;
27003;SDS011;14546;47.590;19.022;2023-07-20T10:08:17;5.25;;;2.70;;
27003;SDS011;14546;47.590;19.022;2023-07-20T10:10:45;9.75;;;2.55;;
27003;SDS011;14546;47.590;19.022;2023-07-20T10:13:25;9.63;;;2.95;;
27003;SDS011;14546;47.590;19.022;2023-07-20T10:16:02;4.38;;;2.58;;
27003;SDS011;14546;47.590;19.022;2023-07-20T10:21:19;7.38;;;3.08;;
27003;SDS011;14546;47.590;19.022;2023-07-20T10:23:48;11.77;;;3.10;;
27003;SDS011;14546;47.590;19.022;2023-07-20T10:26:14;8.50;;;2.60;;
27003;SDS011;14546;47.590;19.022;2023-07-20T10:28:39;6.38;;;2.80;;
27003;SDS011;14546;47.590;19.022;2023-07-20T10:31:07;10.80;;;2.90;;
27003;SDS011;14546;47.590;19.022;2023-07-20T10:33:34;7.63;;;2.47;;
27003;SDS011;14546;47.590;19.022;2023-07-20T10:36:01;6.80;;;2.28;;
27003;SDS011;14546;47.590;19.022;2023-07-20T10:38:39;5.43;;;2.10;;
27003;SDS011;14546;47.590;19.022;2023-07-20T10:41:46;8.27;;;2.88;;
27003;SDS011;14546;47.590;19.022;2023-07-20T10:44:06;4.13;;;2.13;;
27003;SDS011;14546;47.590;19.022;2023-07-20T10:49:05;5.07;;;2.35;;
27003;SDS011;14546;47.590;19.022;2023-07-20T10:51:42;4.75;;;2.17;;
27003;SDS011;14546;47.590;19.022;2023-07-20T10:54:09;5.57;;;2.00;;
27003;SDS011;14546;47.590;19.022;2023-07-20T10:56:35;5.10;;;2.15;;
27003;SDS011;14546;47.590;19.022;2023-07-20T10:59:01;7.50;;;2.70;;
27003;SDS011;14546;47.590;19.022;2023-07-20T11:01:43;4.33;;;2.37;;
27003;SDS011;14546;47.590;19.022;2023-07-20T11:04:10;5.00;;;2.03;;
27003;SDS011;14546;47.590;19.022;2023-07-20T11:06:36;7.85;;;2.40;;
27003;SDS011;14546;47.590;19.022;2023-07-20T11:09:10;8.88;;;2.25;;
27003;SDS011;14546;47.590;19.022;2023-07-20T11:11:39;11.82;;;2.83;;
27003;SDS011;14546;47.590;19.022;2023-07-20T11:14:22;9.93;;;2.90;;
27003;SDS011;14546;47.590;19.022;2023-07-20T11:16:50;7.13;;;2.38;;
27003;SDS011;14546;47.590;19.022;2023-07-20T11:19:24;9.60;;;2.40;;
27003;SDS011;14546;47.590;19.022;2023-07-20T11:21:51;7.25;;;2.33;;
27003;SDS011;14546;47.590;19.022;2023-07-20T11:24:17;3.63;;;2.35;;
27003;SDS011;14546;47.590;19.022;2023-07-20T11:26:47;4.15;;;2.28;;
27003;SDS011;14546;47.590;19.022;2023-07-20T11:29:13;8.13;;;2.08;;
27003;SDS011;14546;47.590;19.022;2023-07-20T11:31:40;6.57;;;1.98;;
27003;SDS011;14546;47.590;19.022;2023-07-20T11:34:10;9.60;;;3.33;;
27003;SDS011;14546;47.590;19.022;2023-07-20T11:36:41;3.28;;;2.15;;
27003;SDS011;14546;47.590;19.022;2023-07-20T11:39:08;3.83;;;1.90;;
27003;SDS011;14546;47.590;19.022;2023-07-20T11:41:48;5.63;;;1.83;;
27003;SDS011;14546;47.590;19.022;2023-07-20T11:44:19;9.65;;;2.35;;
27003;SDS011;14546;47.590;19.022;2023-07-20T11:46:46;7.53;;;2.10;;
27003;SDS011;14546;47.590;19.022;2023-07-20T11:49:12;10.82;;;2.45;;
27003;SDS011;14546;47.590;19.022;2023-07-20T11:51:39;5.15;;;1.92;;
27003;SDS011;14546;47.590;19.022;2023-07-20T11:54:06;7.20;;;2.05;;
27003;SDS011;14546;47.590;19.022;2023-07-20T11:56:32;3.17;;;2.08;;
27003;SDS011;14546;47.590;19.022;2023-07-20T11:58:59;5.43;;;2.13;;
27003;SDS011;14546;47.590;19.022;2023-07-20T12:01:26;4.75;;;2.00;;
27003;SDS011;14546;47.590;19.022;2023-07-20T12:04:00;2.65;;;1.77;;
27003;SDS011;14546;47.590;19.022;2023-07-20T12:06:27;8.65;;;2.30;;
27003;SDS011;14546;47.590;19.022;2023-07-20T12:08:57;4.60;;;2.00;;
27003;SDS011;14546;47.590;19.022;2023-07-20T12:11:57;9.32;;;2.10;;
27003;SDS011;14546;47.590;19.022;2023-07-20T12:14:16;13.02;;;2.20;;
27003;SDS011;14546;47.590;19.022;2023-07-20T12:16:43;9.50;;;2.10;;
27003;SDS011;14546;47.590;19.022;2023-07-20T12:19:10;6.32;;;1.85;;
27003;SDS011;14546;47.590;19.022;2023-07-20T12:21:37;4.93;;;1.85;;
27003;SDS011;14546;47.590;19.022;2023-07-20T12:24:03;4.35;;;2.00;;
27003;SDS011;14546;47.590;19.022;2023-07-20T12:26:30;7.00;;;2.00;;
27003;SDS011;14546;47.590;19.022;2023-07-20T12:28:57;5.68;;;2.30;;
27003;SDS011;14546;47.590;19.022;2023-07-20T12:31:23;3.75;;;1.75;;
27003;SDS011;14546;47.590;19.022;2023-07-20T12:33:49;5.72;;;1.70;;
27003;SDS011;14546;47.590;19.022;2023-07-20T12:36:17;4.68;;;1.77;;
27003;SDS011;14546;47.590;19.022;2023-07-20T12:38:43;5.28;;;1.70;;
27003;SDS011;14546;47.590;19.022;2023-07-20T12:41:10;3.05;;;1.90;;
27003;SDS011;14546;47.590;19.022;2023-07-20T12:43:42;4.32;;;1.73;;
27003;SDS011;14546;47.590;19.022;2023-07-20T12:46:09;4.90;;;1.88;;
27003;SDS011;14546;47.590;19.022;2023-07-20T12:48:35;10.65;;;2.20;;
27003;SDS011;14546;47.590;19.022;2023-07-20T12:51:02;6.70;;;2.10;;
27003;SDS011;14546;47.590;19.022;2023-07-20T12:53:28;4.90;;;2.05;;
27003;SDS011;14546;47.590;19.022;2023-07-20T12:55:55;3.90;;;2.03;;
27003;SDS011;14546;47.590;19.022;2023-07-20T12:58:21;3.70;;;2.17;;
27003;SDS011;14546;47.590;19.022;2023-07-20T13:00:47;7.15;;;2.10;;
27003;SDS011;14546;47.590;19.022;2023-07-20T13:03:13;3.80;;;2.10;;
27003;SDS011;14546;47.590;19.022;2023-07-20T13:05:39;4.18;;;1.85;;
27003;SDS011;14546;47.590;19.022;2023-07-20T13:08:05;2.15;;;1.50;;
27003;SDS011;14546;47.590;19.022;2023-07-20T13:10:32;3.97;;;1.63;;
27003;SDS011;14546;47.590;19.022;2023-07-20T13:12:58;2.92;;;1.40;;
27003;SDS011;14546;47.590;19.022;2023-07-20T13:15:29;9.18;;;2.15;;
27003;SDS011;14546;47.590;19.022;2023-07-20T13:17:56;4.63;;;1.87;;
27003;SDS011;14546;47.590;19.022;2023-07-20T13:20:22;3.53;;;1.83;;
27003;SDS011;14546;47.590;19.022;2023-07-20T13:22:48;10.57;;;2.15;;
27003;SDS011;14546;47.590;19.022;2023-07-20T13:25:14;15.75;;;1.90;;
27003;SDS011;14546;47.590;19.022;2023-07-20T13:27:40;6.25;;;2.03;;
27003;SDS011;14546;47.590;19.022;2023-07-20T13:30:07;5.00;;;1.80;;
27003;SDS011;14546;47.590;19.022;2023-07-20T13:32:35;9.30;;;1.77;;
27003;SDS011;14546;47.590;19.022;2023-07-20T13:35:01;3.70;;;1.67;;
27003;SDS011;14546;47.590;19.022;2023-07-20T13:37:27;5.75;;;1.73;;
27003;SDS011;14546;47.590;19.022;2023-07-20T13:39:54;6.05;;;1.95;;
27003;SDS011;14546;47.590;19.022;2023-07-20T13:42:20;4.18;;;1.45;;
27003;SDS011;14546;47.590;19.022;2023-07-20T13:44:47;7.38;;;1.77;;
27003;SDS011;14546;47.590;19.022;2023-07-20T13:47:13;5.05;;;1.83;;
27003;SDS011;14546;47.590;19.022;2023-07-20T13:49:40;2.72;;;1.73;;
27003;SDS011;14546;47.590;19.022;2023-07-20T13:52:06;10.20;;;2.08;;
27003;SDS011;14546;47.590;19.022;2023-07-20T13:54:32;6.68;;;2.05;;
27003;SDS011;14546;47.590;19.022;2023-07-20T13:56:58;6.93;;;2.03;;
27003;SDS011;14546;47.590;19.022;2023-07-20T13:59:24;2.88;;;1.50;;
27003;SDS011;14546;47.590;19.022;2023-07-20T14:01:50;5.35;;;1.55;;
27003;SDS011;14546;47.590;19.022;2023-07-20T14:04:16;3.45;;;1.90;;
27003;SDS011;14546;47.590;19.022;2023-07-20T14:06:43;3.58;;;1.70;;
27003;SDS011;14546;47.590;19.022;2023-07-20T14:09:09;2.75;;;1.90;;
27003;SDS011;14546;47.590;19.022;2023-07-20T14:11:35;4.72;;;1.90;;
27003;SDS011;14546;47.590;19.022;2023-07-20T14:14:01;5.45;;;1.70;;
27003;SDS011;14546;47.590;19.022;2023-07-20T14:16:27;6.10;;;1.70;;
27003;SDS011;14546;47.590;19.022;2023-07-20T14:18:53;2.33;;;1.63;;
27003;SDS011;14546;47.590;19.022;2023-07-20T14:21:20;4.90;;;2.35;;
27003;SDS011;14546;47.590;19.022;2023-07-20T14:23:46;5.25;;;1.90;;
27003;SDS011;14546;47.590;19.022;2023-07-20T14:26:12;2.33;;;1.63;;
27003;SDS011;14546;47.590;19.022;2023-07-20T14:28:38;6.55;;;1.92;;
27003;SDS011;14546;47.590;19.022;2023-07-20T14:31:04;10.27;;;2.10;;
27003;SDS011;14546;47.590;19.022;2023-07-20T14:33:31;11.57;;;1.98;;
27003;SDS011;14546;47.590;19.022;2023-07-20T14:35:57;5.68;;;1.98;;
27003;SDS011;14546;47.590;19.022;2023-07-20T14:38:23;5.70;;;2.00;;
27003;SDS011;14546;47.590;19.022;2023-07-20T14:40:49;3.05;;;1.80;;
27003;SDS011;14546;47.590;19.022;2023-07-20T14:43:15;6.95;;;1.70;;
27003;SDS011;14546;47.590;19.022;2023-07-20T14:45:41;4.35;;;1.63;;
27003;SDS011;14546;47.590;19.022;2023-07-20T14:48:07;6.00;;;1.50;;
27003;SDS011;14546;47.590;19.022;2023-07-20T14:50:34;4.90;;;1.63;;